Hlavní strana
METAR-TAF:

METAR-TAF

Letiště :

Magnitogorsk, Rusko

zeměpisná šířka: 53-23-36N, zeměpisná délka: 058-45-24E, výška: 436 m

Aktuální stav počasí

Zpráva byla vytvořena před 35 minutami, v 04:00 UTC
Východojihovýchodní vítr 2 kt
Teplota -1°C
Vlhkost vzduchu 86%
Tlak 1019 hPa
Viditelnost 10 km a více
Zataženo ve výšce 3600 ft

METAR: USCM 180400Z 12001MPS 9999 OVC036 M01/M03 Q1019 R18/550149 NOSIG RMK QFE727

Čas: 09:35 (04:35 UTC)

Předpověď počasí

Zpráva byla vytvořena před 2 hodinami a 35 minutami, v 02:00 UTC
Předpověď platná od 18 v 03 UTC do 18 v 12 UTC
Jihozápadní vítr 6 kt s nárazy do 16 kt
Viditelnost: 6000 m
Oblačno až skoro zataženo ve výšce 1500 ft
Dočasný
od 18 v 03 UTC do 18 v 12 UTC
Jižní vítr 4 kt
Viditelnost: 3100 m
ve výšce 1100 ft
slabé sněžení, (slabý) mrznoucí, mrholení

TAF: USCM 180200Z 1803/1812 22003G08MPS 6000 BKN015 TEMPO 1803/1812 17002MPS 3100 -SN -FZDZ VV011

Stav a předpovědi počasí z více než 4 000 letišť (zprávy METAR a TAF).

Červené a žluté tečky na mapě představují dostupné meteorologické stanice.

Když kurzor umístíte na tečku, zobrazí se název stanice.

Pak kliknutím zobrazíte stav a předpověď počasí.

Chcete-li změnit mapu, kliknutím na zelené tlačítko se znaménkem +mapu přiblížíte, kliknutím na zelené tlačítko se znaménkem – mapu oddálíte a kliknutím na zelené šipky přejdete na sousední mapy.


METAR-TAF: